Las Vegas, Nevada (DRI) Weather observations

Data are for observation ending at time listed.
 Day   Time    Ave.   Ave.  Ave.  Vector   Max.   Stn.    Total    Solar   Ave.  
  of    of     Air    Rel.  Wind   Wind    Wind   Baro.  Precip.   Rad.    Soil  
Year   Day     Temp.  Hum.  Speed  Dir.    Gust   Pres.                    Temp. 
2015   (PST)    F      %     mph   deg.    mph     mb.     in.     W/m2     F   
------------------------------------------------------------------------------
 239    0:00   86.0    33    2.8    56      6.4   946.0    0.00       2    97.8
 239    0:10   86.1    33    3.3    53      7.4   945.9    0.00       2    97.7
 239    0:20   86.0    33    3.3    51      8.7   945.9    0.00       2    97.6
 239    0:30   85.8    33    3.1    53      7.6   945.9    0.00       1    97.5
 239    0:40   85.9    34    3.0    53      6.8   946.0    0.00       1    97.5
 239    0:50   85.7    34    2.8    54      5.9   946.0    0.00       2    97.4
 239    1:00   85.4    34    3.1    35      7.2   946.1    0.00       2    97.3
 239    1:10   85.3    35    2.1    32      5.4   946.1    0.00       1    97.2
 239    1:20   85.1    36    1.4    38      4.5   946.0    0.00       1    97.1
 239    1:30   84.9    36    0.7    49      3.7   946.0    0.00       1    97.1
 239    1:40   84.7    37    0.4    51      2.3   946.1    0.00       2    97.0
 239    1:50   84.7    37    0.4    52      3.3   946.1    0.00       1    96.9
 239    2:00   84.6    37    0.2    50      2.5   946.1    0.00       2    96.8
 239    2:10   84.4    38    0.3    39      4.0   946.1    0.00       1    96.7
 239    2:20   84.4    37    0.4    49      2.6   946.1    0.00       2    96.7
 239    2:30   84.5    37    0.5    13      3.3   946.2    0.00       2    96.6
 239    2:40   84.1    38    0.1    26      0.7   946.2    0.00       1    96.5
 239    2:50   83.3    40    0.1   154      1.5   946.2    0.00       1    96.4
 239    3:00   83.1    41    0.5   180      1.8   946.2    0.00       1    96.4
 239    3:10   82.6    42    0.0   187      0.7   946.2    0.00       1    96.2
 239    3:20   82.6    42    0.0     0      0.0   946.3    0.00       1    96.1
 239    3:30   82.3    42    0.0     0      0.0   946.2    0.00       1    96.1
 239    3:40   82.9    40    0.1   183      0.9   946.3    0.00       2    96.0
 239    3:50   83.5    40    0.3     0      2.0   946.3    0.00       1    95.9
 239    4:00   83.6    40    0.7   315      2.3   946.3    0.00       1    95.8
 239    4:10   83.6    40    0.2   295      2.0   946.2    0.00       1    95.7
 239    4:20   83.3    41    0.0   282      1.4   946.2    0.00       1    95.6
 239    4:30   82.3    43    0.0     0      0.0   946.3    0.00       1    95.6
 239    4:40   81.8    44    0.0     0      0.0   946.2    0.00       0    95.5
 239    4:50   81.7    44    0.0     0      0.0   946.2    0.00       2    95.4
 239    5:00   81.6    45    0.0     0      0.0   946.3    0.00       3    95.4
 239    5:10   81.6    44    0.0     0      0.0   946.2    0.00       4    95.3
 239    5:20   81.4    45    0.0     0      0.0   946.2    0.00       6    95.2
 239    5:30   81.2    47    0.0     0      0.0   946.2    0.00      12    95.1
 239    5:40   81.5    46    0.0     0      0.0   946.3    0.00      18    95.1
 239    5:50   81.7    46    0.0     0      0.0   946.4    0.00      23    95.0
 239    6:00   82.3    46    0.0   194      0.1   946.4    0.00      25    94.9
 239    6:10   82.4    44    0.4   178      2.0   946.5    0.00      31    94.8
 239    6:20   82.8    41    0.6   173      2.9   946.6    0.00      34    94.7
 239    6:30   83.3    39    0.7   176      2.6   946.7    0.00      39    94.6
 239    6:40   83.9    38    0.2   170      1.6   946.8    0.00      49    94.6
 239    6:50   84.3    38    0.0    70      1.4   947.0    0.00      57    94.5
 239    7:00   84.4    39    0.2   192      2.0   947.1    0.00      51    94.4
 239    7:10   84.4    38    0.6    35      4.2   947.2    0.00      46    94.3
 239    7:20   84.8    38    0.4    51      3.3   947.3    0.00      40    94.3
 239    7:30   85.7    36    1.3    38      3.7   947.3    0.00      40    94.2
 239    7:40   85.8    37    1.4    38      6.7   947.4    0.00      45    94.2
 239    7:50   85.5    38    2.1    48      5.9   947.5    0.00      56    94.1
 239    8:00   85.5    36    1.8    50      5.6   947.6    0.00      67    94.0
 239    8:10   85.7    34    2.2    54      7.7   947.6    0.00      69    94.0
 239    8:20   86.1    34    1.7    56      5.2   947.6    0.00     109    93.9
 239    8:30   86.5    33    2.0    49      5.6   947.6    0.00     287    93.8
 239    8:40   87.1    33    1.7    40      5.4   947.6    0.00     529    93.8
 239    8:50   87.6    32    1.4    45      4.5   947.5    0.00     685    93.7
 239    9:00   88.0    32    1.5    40      6.3   947.5    0.00     714    93.7
 239    9:10   88.4    31    3.1    25      6.4   947.6    0.00     742    93.6
 239    9:20   88.6    31    1.6    23      5.1   947.6    0.00     768    93.5
 239    9:30   89.9    30    0.9    33      5.0   947.4    0.00     793    93.5
 239    9:40   90.4    29    1.1    51      4.3   947.3    0.00     817    93.5
 239    9:50   91.7    28    1.3   347      3.9   947.3    0.00     838    93.5
 239   10:00   92.2    28    1.4   213      3.7   947.2    0.00     860    93.4
 239   10:10   92.4    28    1.9   193      5.9   947.0    0.00     881    93.3
 239   10:20   92.7    28    1.4   163      6.0   946.9    0.00     899    93.3
 239   10:30   93.9    27    1.4   114      7.2   946.8    0.00     919    93.3
 239   10:40   93.9    26    1.8   180      5.1   946.6    0.00     936    93.2
 239   10:50   95.1    26    1.2   190      4.6   946.5    0.00     950    93.2
 239   11:00   95.3    25    1.8    26      5.4   946.3    0.00     965    93.3
 239   11:10   94.9    26    1.6     4      3.9   946.1    0.00     980    93.3
 239   11:20   96.7    25    1.2   180      3.9   945.9    0.00     998    93.4
 239   11:30   96.4    24    2.5    30      7.2   945.8    0.00    1017    93.5
 239   11:40   96.3    24    3.7     6      7.9   945.7    0.00    1032    93.6
 239   11:50   96.4    24    2.2    26      5.8   945.6    0.00    1058    93.8
 239   12:00   98.0    23    1.7   250      4.9   945.5    0.00    1098    93.9
 239   12:10   99.2    22    2.3   336      5.6   945.3    0.00    1158    94.2
 239   12:20   99.8    22    1.8    12      5.6   945.1    0.00    1130    94.4
 239   12:30   98.8    23    1.5    37      4.7   944.9    0.00    1081    94.6
 239   12:40   99.8    22    1.2    16      4.3   944.6    0.00     930    94.7
 239   12:50   99.6    22    2.6   183      5.6   944.5    0.00     607    94.9
 239   13:00   98.0    23    1.7   202      4.7   944.4    0.00     349    95.2
 239   13:10   99.0    22    1.2   307      3.4   944.2    0.00     330    95.4
 239   13:20   98.0    23    1.3    20      3.8   944.1    0.00     357    95.7
 239   13:30   98.2    23    1.0   285      4.1   944.0    0.00     296    96.0
 239   13:40   98.7    22    1.3   278      4.2   943.9    0.00     286    96.2
 239   13:50   98.9    22    1.1   312      3.5   943.6    0.00     287    96.5
 239   14:00   98.7    22    1.6   301      4.5   943.5    0.00     329    96.7
 239   14:10   98.9    22    2.5   288      5.3   943.5    0.00     374    96.9
 239   14:20   99.0    22    1.7   311      4.7   943.4    0.00     592    97.2
 239   14:30  100.9    20    1.5   307      4.3   943.2    0.00     778    97.4
 239   14:40  102.1    20    1.4   232      3.9   943.0    0.00     945    97.6
 239   14:50  102.9    18    1.6   333      5.2   942.8    0.00     851    97.8
 239   15:00  101.7    19    1.7   273      6.4   942.6    0.00     573    97.9
 239   15:10  101.2    20    2.3   341      5.8   942.4    0.00     629    98.1
 239   15:20  101.1    20    2.6   347      5.8   942.2    0.00     611    98.2
 239   15:30  102.5    18    2.0   285      6.2   942.2    0.00     573    98.4
 239   15:40  101.2    18    3.1    25      7.2   942.1    0.00     533    98.5
 239   15:50  100.5    18    2.3    36      5.3   942.0    0.00     494    98.7
 239   16:00  101.2    17    1.7    20      4.2   941.9    0.00     459    98.9
 239   16:10  101.8    17    3.1   357      6.4   941.7    0.00     423    99.0
 239   16:20  101.4    16    3.7    15      7.5   941.7    0.00     386    99.2
 239   16:30  100.6    18    2.6    33      7.4   941.6    0.00     344    99.3
 239   16:40  100.6    17    2.1    31      5.9   941.6    0.00     307    99.5
 239   16:50  101.0    15    2.2    15      6.8   941.5    0.00     270    99.6
 239   17:00  102.1    15    0.7    30      2.7   941.5    0.00     233    99.7
 239   17:10  101.8    15    0.9    51      4.2   941.5    0.00     196    99.9
 239   17:20  100.9    15    0.7    45      3.2   941.5    0.00     159    100.0
 239   17:30  100.8    15    0.7    45      4.5   941.4    0.00     125    100.1
 239   17:40  100.0    16    0.5    26      2.6   941.3    0.00      91    100.3
 239   17:50   99.0    17    0.5    42      2.6   941.4    0.00      29    100.4
 239   18:00   98.7    17    0.6    23      2.4   941.5    0.00      18    100.5
 239   18:10   98.5    18    0.4    18      2.6   941.5    0.00       9    100.6
 239   18:20   97.9    19    0.0   156      0.9   941.6    0.00       3    100.7
 239   18:30   97.6    19    0.0   169      0.7   941.6    0.00       3    100.7
 239   18:40   96.9    21    0.2   164      1.3   941.6    0.00       0    100.8
 239   18:50   96.2    22    0.0     0      0.0   941.8    0.00       0    100.8
 239   19:00   95.5    23    0.0     0      0.0   941.9    0.00       0    100.8
 239   19:10   95.2    23    0.0     0      0.0   942.0    0.00       0    100.9
 239   19:20   95.2    22    0.3   143      3.3   942.1    0.00       0    100.9
 239   19:30   95.6    22    0.0   179      0.6   942.3    0.00       0    100.9
 239   19:40   94.9    22    0.1    43      1.7   942.4    0.00       0    100.8
 239   19:50   94.6    23    0.0     0      0.0   942.6    0.00       1    100.8
 239   20:00   94.4    24    0.0     0      0.0   942.7    0.00       0    100.7
 239   20:10   94.3    24    0.0     0      0.0   942.7    0.00       0    100.7
 239   20:20   94.1    26    0.4   204      2.3   942.7    0.00       0    100.6
 239   20:30   94.3    26    0.8   219      2.4   942.7    0.00       1    100.6
 239   20:40   94.5    24    0.5   203      2.7   942.7    0.00       1    100.5
 239   20:50   94.8    22    0.7   305      2.2   942.9    0.00       1    100.5
 239   21:00   94.8    22    0.6   318      3.0   942.9    0.00       1    100.4
 239   21:10   94.4    22    0.3   326      2.3   942.9    0.00       1    100.3
 239   21:20   94.1    22    0.2   230      2.0   942.9    0.00       1    100.3
 239   21:30   93.3    23    1.4   179      2.6   942.9    0.00       1    100.2
 239   21:40   92.5    24    0.7   169      2.4   942.9    0.00       0    100.1
 239   21:50   91.9    24    0.1   146      1.5   942.9    0.00       2    100.0
 239   22:00   91.1    26    0.5   177      1.7   942.8    0.00       1    100.0
 239   22:10   90.2    27    0.4   181      2.0   942.8    0.00       1    99.9
 239   22:20   90.8    27    0.3    40      2.5   942.8    0.00       2    99.8
 239   22:30   90.9    26    0.0   130      0.9   942.8    0.00       1    99.8
 239   22:40   90.1    27    0.1     0      1.1   942.8    0.00       1    99.7
 239   22:50   90.4    26    0.1   358      1.5   942.7    0.00       2    99.6
 239   23:00   89.9    27    1.1   168      2.4   942.7    0.00       1    99.5
 239   23:10   89.6    28    0.1   162      1.0   942.7    0.00       2    99.4
 239   23:20   89.1    29    0.0   140      0.3   942.7    0.00       2    99.3
 239   23:30   88.5    30    0.0     0      0.0   942.7    0.00       2    99.2
 239   23:40   88.1    31    0.0     0      0.0   942.8    0.00       2    99.2
 239   23:50   87.6    32    0.1   154      0.9   942.8    0.00       2    99.1

Return to Las Vegas, Nevada graphs page.


Western Regional Climate Center,wrcc@dri.edu